sensor_id;sensor_type;location;lat;lon;timestamp;pressure;altitude;pressure_sealevel;temperature;humidity
71601;BME280;59446;52.192;4.628;2023-02-15T00:01:14;102979.56;;;17.16;49.49
71601;BME280;59446;52.192;4.628;2023-02-15T00:03:40;102972.56;;;17.15;49.08
71601;BME280;59446;52.192;4.628;2023-02-15T00:06:05;102976.97;;;17.15;49.47
71601;BME280;59446;52.192;4.628;2023-02-15T00:08:31;102977.91;;;17.12;49.58
71601;BME280;59446;52.192;4.628;2023-02-15T00:11:04;102969.09;;;17.13;49.42
71601;BME280;59446;52.192;4.628;2023-02-15T00:13:30;102970.91;;;17.11;49.32
71601;BME280;59446;52.192;4.628;2023-02-15T00:16:01;102958.63;;;17.10;49.46
71601;BME280;59446;52.192;4.628;2023-02-15T00:18:26;102959.50;;;17.11;48.93
71601;BME280;59446;52.192;4.628;2023-02-15T00:20:51;102956.94;;;17.08;49.18
71601;BME280;59446;52.192;4.628;2023-02-15T00:23:17;102951.75;;;17.05;49.53
71601;BME280;59446;52.192;4.628;2023-02-15T00:25:42;102950.91;;;17.03;49.39
71601;BME280;59446;52.192;4.628;2023-02-15T00:28:07;102943.03;;;17.03;48.99
71601;BME280;59446;52.192;4.628;2023-02-15T00:30:33;102945.69;;;17.01;49.13
71601;BME280;59446;52.192;4.628;2023-02-15T00:32:58;102947.41;;;17.02;49.50
71601;BME280;59446;52.192;4.628;2023-02-15T00:35:23;102943.13;;;16.96;49.39
71601;BME280;59446;52.192;4.628;2023-02-15T00:37:49;102949.28;;;16.95;49.22
71601;BME280;59446;52.192;4.628;2023-02-15T00:40:14;102944.94;;;16.94;49.16
71601;BME280;59446;52.192;4.628;2023-02-15T00:42:39;102945.78;;;16.95;49.39
71601;BME280;59446;52.192;4.628;2023-02-15T00:45:05;102938.84;;;16.92;49.73
71601;BME280;59446;52.192;4.628;2023-02-15T00:47:30;102932.72;;;16.92;49.92
71601;BME280;59446;52.192;4.628;2023-02-15T00:49:56;102933.59;;;16.91;49.91
71601;BME280;59446;52.192;4.628;2023-02-15T00:52:21;102938.00;;;16.90;49.97
71601;BME280;59446;52.192;4.628;2023-02-15T00:54:46;102943.34;;;16.87;50.46
71601;BME280;59446;52.192;4.628;2023-02-15T00:57:12;102940.63;;;16.90;50.35
71601;BME280;59446;52.192;4.628;2023-02-15T00:59:37;102937.06;;;16.93;50.04
71601;BME280;59446;52.192;4.628;2023-02-15T01:02:02;102938.88;;;16.91;50.28
71601;BME280;59446;52.192;4.628;2023-02-15T01:04:28;102928.41;;;16.88;49.95
71601;BME280;59446;52.192;4.628;2023-02-15T01:06:53;102929.31;;;16.87;50.35
71601;BME280;59446;52.192;4.628;2023-02-15T01:09:18;102924.06;;;16.87;50.53
71601;BME280;59446;52.192;4.628;2023-02-15T01:11:44;102922.31;;;16.86;50.51
71601;BME280;59446;52.192;4.628;2023-02-15T01:14:09;102917.00;;;16.89;50.33
71601;BME280;59446;52.192;4.628;2023-02-15T01:16:35;102918.75;;;16.88;50.02
71601;BME280;59446;52.192;4.628;2023-02-15T01:19:00;102913.59;;;16.84;50.74
71601;BME280;59446;52.192;4.628;2023-02-15T01:21:27;102911.00;;;16.82;50.78
71601;BME280;59446;52.192;4.628;2023-02-15T01:23:53;102908.38;;;16.82;50.77
71601;BME280;59446;52.192;4.628;2023-02-15T01:26:18;102909.22;;;16.83;50.40
71601;BME280;59446;52.192;4.628;2023-02-15T01:28:44;102912.69;;;16.85;50.55
71601;BME280;59446;52.192;4.628;2023-02-15T01:31:13;102900.41;;;16.85;50.48
71601;BME280;59446;52.192;4.628;2023-02-15T01:33:39;102905.81;;;16.79;50.65
71601;BME280;59446;52.192;4.628;2023-02-15T01:36:05;102908.50;;;16.75;50.45
71601;BME280;59446;52.192;4.628;2023-02-15T01:38:30;102909.34;;;16.77;50.46
71601;BME280;59446;52.192;4.628;2023-02-15T01:40:56;102912.91;;;16.74;50.95
71601;BME280;59446;52.192;4.628;2023-02-15T01:43:52;102904.94;;;16.77;50.90
71601;BME280;59446;52.192;4.628;2023-02-15T01:46:21;102903.28;;;16.73;50.96
71601;BME280;59446;52.192;4.628;2023-02-15T01:48:49;102900.69;;;16.72;50.65
71601;BME280;59446;52.192;4.628;2023-02-15T01:51:19;102897.09;;;16.76;50.75
71601;BME280;59446;52.192;4.628;2023-02-15T01:54:29;102893.66;;;16.72;50.68
71601;BME280;59446;52.192;4.628;2023-02-15T01:57:01;102893.63;;;16.74;51.24
71601;BME280;59446;52.192;4.628;2023-02-15T01:59:28;102894.56;;;16.71;50.82
71601;BME280;59446;52.192;4.628;2023-02-15T02:01:57;102890.22;;;16.69;50.78
71601;BME280;59446;52.192;4.628;2023-02-15T02:04:33;102892.00;;;16.68;51.08
71601;BME280;59446;52.192;4.628;2023-02-15T02:07:00;102891.16;;;16.66;51.15
71601;BME280;59446;52.192;4.628;2023-02-15T02:09:26;102891.19;;;16.64;50.85
71601;BME280;59446;52.192;4.628;2023-02-15T02:11:52;102889.47;;;16.63;51.37
71601;BME280;59446;52.192;4.628;2023-02-15T02:14:20;102884.19;;;16.65;51.40
71601;BME280;59446;52.192;4.628;2023-02-15T02:16:58;102879.78;;;16.65;51.18
71601;BME280;59446;52.192;4.628;2023-02-15T02:22:44;102878.09;;;16.61;51.34
71601;BME280;59446;52.192;4.628;2023-02-15T02:25:31;102873.72;;;16.60;50.84
71601;BME280;59446;52.192;4.628;2023-02-15T02:28:39;102872.88;;;16.58;51.50
71601;BME280;59446;52.192;4.628;2023-02-15T02:31:39;102862.38;;;16.58;51.20
71601;BME280;59446;52.192;4.628;2023-02-15T02:34:42;102859.75;;;16.58;51.13
71601;BME280;59446;52.192;4.628;2023-02-15T02:37:23;102855.41;;;16.56;51.47
71601;BME280;59446;52.192;4.628;2023-02-15T02:40:13;102852.78;;;16.56;51.53
71601;BME280;59446;52.192;4.628;2023-02-15T02:42:46;102849.22;;;16.58;50.97
71601;BME280;59446;52.192;4.628;2023-02-15T02:45:25;102844.91;;;16.56;51.70
71601;BME280;59446;52.192;4.628;2023-02-15T02:48:00;102844.00;;;16.57;50.94
71601;BME280;59446;52.192;4.628;2023-02-15T02:50:29;102838.78;;;16.54;51.26
71601;BME280;59446;52.192;4.628;2023-02-15T02:52:56;102827.38;;;16.53;51.22
71601;BME280;59446;52.192;4.628;2023-02-15T03:00:31;102815.16;;;16.51;51.47
71601;BME280;59446;52.192;4.628;2023-02-15T03:03:06;102806.41;;;16.50;51.46
71601;BME280;59446;52.192;4.628;2023-02-15T03:05:34;102807.38;;;16.46;51.14
71601;BME280;59446;52.192;4.628;2023-02-15T03:08:03;102807.34;;;16.48;51.25
71601;BME280;59446;52.192;4.628;2023-02-15T03:10:31;102813.47;;;16.48;51.55
71601;BME280;59446;52.192;4.628;2023-02-15T03:12:59;102816.13;;;16.47;51.43
71601;BME280;59446;52.192;4.628;2023-02-15T03:15:29;102813.53;;;16.45;51.52
71601;BME280;59446;52.192;4.628;2023-02-15T03:18:18;102816.03;;;16.51;51.08
71601;BME280;59446;52.192;4.628;2023-02-15T03:20:46;102814.50;;;16.41;51.15
71601;BME280;59446;52.192;4.628;2023-02-15T03:23:16;102811.81;;;16.44;51.67
71601;BME280;59446;52.192;4.628;2023-02-15T03:25:45;102807.53;;;16.40;51.51
71601;BME280;59446;52.192;4.628;2023-02-15T03:28:18;102802.31;;;16.39;51.32
71601;BME280;59446;52.192;4.628;2023-02-15T03:30:49;102807.53;;;16.40;51.60
71601;BME280;59446;52.192;4.628;2023-02-15T03:33:19;102803.13;;;16.41;51.40
71601;BME280;59446;52.192;4.628;2023-02-15T03:35:54;102797.94;;;16.38;51.27
71601;BME280;59446;52.192;4.628;2023-02-15T03:38:34;102798.84;;;16.36;51.74
71601;BME280;59446;52.192;4.628;2023-02-15T03:41:02;102795.34;;;16.36;51.29
71601;BME280;59446;52.192;4.628;2023-02-15T03:43:53;102791.84;;;16.35;51.63
71601;BME280;59446;52.192;4.628;2023-02-15T03:46:27;102784.00;;;16.32;51.58
71601;BME280;59446;52.192;4.628;2023-02-15T03:48:56;102779.56;;;16.36;51.20
71601;BME280;59446;52.192;4.628;2023-02-15T03:51:32;102783.94;;;16.37;51.65
71601;BME280;59446;52.192;4.628;2023-02-15T03:54:11;102770.00;;;16.33;51.15
71601;BME280;59446;52.192;4.628;2023-02-15T03:56:40;102766.47;;;16.33;51.38
71601;BME280;59446;52.192;4.628;2023-02-15T03:59:06;102771.72;;;16.33;51.31
71601;BME280;59446;52.192;4.628;2023-02-15T04:02:07;102774.38;;;16.31;51.72
71601;BME280;59446;52.192;4.628;2023-02-15T04:04:38;102771.75;;;16.31;51.58
71601;BME280;59446;52.192;4.628;2023-02-15T04:07:06;102771.78;;;16.30;51.37
71601;BME280;59446;52.192;4.628;2023-02-15T04:09:32;102767.38;;;16.32;51.41
71601;BME280;59446;52.192;4.628;2023-02-15T04:12:16;102764.81;;;16.29;51.66
71601;BME280;59446;52.192;4.628;2023-02-15T04:14:42;102762.25;;;16.26;51.52
71601;BME280;59446;52.192;4.628;2023-02-15T04:17:26;102751.75;;;16.24;51.21
71601;BME280;59446;52.192;4.628;2023-02-15T04:19:52;102749.09;;;16.26;51.86
71601;BME280;59446;52.192;4.628;2023-02-15T04:22:35;102758.81;;;16.22;51.90
71601;BME280;59446;52.192;4.628;2023-02-15T04:25:19;102748.25;;;16.25;51.45
71601;BME280;59446;52.192;4.628;2023-02-15T04:27:48;102751.84;;;16.21;51.41
71601;BME280;59446;52.192;4.628;2023-02-15T04:30:14;102751.84;;;16.21;51.56
71601;BME280;59446;52.192;4.628;2023-02-15T04:32:40;102756.16;;;16.24;51.77
71601;BME280;59446;52.192;4.628;2023-02-15T04:35:06;102748.34;;;16.21;51.77
71601;BME280;59446;52.192;4.628;2023-02-15T04:37:32;102747.47;;;16.20;51.53
71601;BME280;59446;52.192;4.628;2023-02-15T04:39:58;102751.88;;;16.20;51.43
71601;BME280;59446;52.192;4.628;2023-02-15T04:42:24;102751.00;;;16.19;52.00
71601;BME280;59446;52.192;4.628;2023-02-15T04:44:50;102744.88;;;16.19;51.86
71601;BME280;59446;52.192;4.628;2023-02-15T04:47:16;102744.88;;;16.19;51.21
71601;BME280;59446;52.192;4.628;2023-02-15T04:49:41;102738.84;;;16.15;51.35
71601;BME280;59446;52.192;4.628;2023-02-15T04:52:06;102743.22;;;16.15;51.79
71601;BME280;59446;52.192;4.628;2023-02-15T04:54:32;102739.69;;;16.16;51.25
71601;BME280;59446;52.192;4.628;2023-02-15T04:56:57;102735.34;;;16.15;51.30
71601;BME280;59446;52.192;4.628;2023-02-15T04:59:23;102738.00;;;16.13;51.96
71601;BME280;59446;52.192;4.628;2023-02-15T05:01:48;102743.25;;;16.13;51.74
71601;BME280;59446;52.192;4.628;2023-02-15T05:04:13;102731.81;;;16.16;51.45
71601;BME280;59446;52.192;4.628;2023-02-15T05:06:39;102732.75;;;16.13;51.74
71601;BME280;59446;52.192;4.628;2023-02-15T05:09:04;102730.16;;;16.12;51.87
71601;BME280;59446;52.192;4.628;2023-02-15T05:11:29;102732.81;;;16.09;51.76
71601;BME280;59446;52.192;4.628;2023-02-15T05:13:55;102718.84;;;16.06;52.05
71601;BME280;59446;52.192;4.628;2023-02-15T05:16:20;102721.44;;;16.08;51.98
71601;BME280;59446;52.192;4.628;2023-02-15T05:18:46;102718.03;;;16.04;52.33
71601;BME280;59446;52.192;4.628;2023-02-15T05:21:11;102725.78;;;16.09;51.48
71601;BME280;59446;52.192;4.628;2023-02-15T05:23:38;102732.78;;;16.10;52.01
71601;BME280;59446;52.192;4.628;2023-02-15T05:26:04;102719.75;;;16.05;52.12
71601;BME280;59446;52.192;4.628;2023-02-15T05:28:47;102726.75;;;16.05;51.53
71601;BME280;59446;52.192;4.628;2023-02-15T05:31:15;102724.22;;;16.02;51.87
71601;BME280;59446;52.192;4.628;2023-02-15T05:33:42;102724.22;;;16.02;52.03
71601;BME280;59446;52.192;4.628;2023-02-15T05:36:08;102733.78;;;16.04;51.93
71601;BME280;59446;52.192;4.628;2023-02-15T05:38:34;102736.38;;;16.06;51.31
71601;BME280;59446;52.192;4.628;2023-02-15T05:41:02;102728.59;;;16.01;51.62
71601;BME280;59446;52.192;4.628;2023-02-15T05:43:28;102729.50;;;16.00;51.77
71601;BME280;59446;52.192;4.628;2023-02-15T05:45:54;102722.50;;;15.99;52.10
71601;BME280;59446;52.192;4.628;2023-02-15T05:48:21;102715.56;;;15.97;51.67
71601;BME280;59446;52.192;4.628;2023-02-15T05:51:04;102716.44;;;15.97;51.88
71601;BME280;59446;52.192;4.628;2023-02-15T05:53:30;102712.97;;;15.95;51.72
71601;BME280;59446;52.192;4.628;2023-02-15T05:55:56;102707.69;;;15.97;51.42
71601;BME280;59446;52.192;4.628;2023-02-15T05:58:35;102703.31;;;15.96;51.65
71601;BME280;59446;52.192;4.628;2023-02-15T06:01:11;102698.94;;;15.96;51.45
71601;BME280;59446;52.192;4.628;2023-02-15T06:03:36;102699.84;;;15.95;51.55
71601;BME280;59446;52.192;4.628;2023-02-15T06:06:02;102695.53;;;15.91;51.92
71601;BME280;59446;52.192;4.628;2023-02-15T06:08:30;102701.63;;;15.93;51.58
71601;BME280;59446;52.192;4.628;2023-02-15T06:10:55;102699.84;;;15.95;51.79
71601;BME280;59446;52.192;4.628;2023-02-15T06:13:21;102708.69;;;15.91;51.59
71601;BME280;59446;52.192;4.628;2023-02-15T06:15:46;102705.19;;;15.91;51.85
71601;BME280;59446;52.192;4.628;2023-02-15T06:18:12;102712.25;;;15.87;51.72
71601;BME280;59446;52.192;4.628;2023-02-15T06:20:37;102703.50;;;15.88;51.73
71601;BME280;59446;52.192;4.628;2023-02-15T06:23:02;102709.63;;;15.87;52.15
71601;BME280;59446;52.192;4.628;2023-02-15T06:25:28;102705.22;;;15.88;51.46
71601;BME280;59446;52.192;4.628;2023-02-15T06:27:54;102703.50;;;15.88;51.52
71601;BME280;59446;52.192;4.628;2023-02-15T06:30:19;102701.72;;;15.89;51.81
71601;BME280;59446;52.192;4.628;2023-02-15T06:32:45;102714.88;;;15.87;51.42
71601;BME280;59446;52.192;4.628;2023-02-15T06:35:10;102709.69;;;15.84;52.27
71601;BME280;59446;52.192;4.628;2023-02-15T06:37:36;102701.81;;;15.84;51.94
71601;BME280;59446;52.192;4.628;2023-02-15T06:40:02;102700.06;;;15.83;51.75
71601;BME280;59446;52.192;4.628;2023-02-15T06:42:29;102701.88;;;15.81;51.74
71601;BME280;59446;52.192;4.628;2023-02-15T06:44:54;102706.22;;;15.82;51.91
71601;BME280;59446;52.192;4.628;2023-02-15T06:47:20;102710.56;;;15.83;52.20
71601;BME280;59446;52.192;4.628;2023-02-15T06:49:45;102701.00;;;15.81;51.99
71601;BME280;59446;52.192;4.628;2023-02-15T06:52:11;102700.06;;;15.83;51.45
71601;BME280;59446;52.192;4.628;2023-02-15T06:54:36;102695.69;;;15.84;51.39
71601;BME280;59446;52.192;4.628;2023-02-15T06:57:01;102699.19;;;15.83;51.71
71601;BME280;59446;52.192;4.628;2023-02-15T06:59:27;102702.78;;;15.79;51.55
71601;BME280;59446;52.192;4.628;2023-02-15T07:01:52;102693.94;;;15.83;51.79
71601;BME280;59446;52.192;4.628;2023-02-15T07:04:17;102695.75;;;15.81;51.94
71601;BME280;59446;52.192;4.628;2023-02-15T07:06:43;102703.69;;;15.78;51.90
71601;BME280;59446;52.192;4.628;2023-02-15T07:09:08;102699.25;;;15.81;52.14
71601;BME280;59446;52.192;4.628;2023-02-15T07:11:34;102696.66;;;15.80;51.85
71601;BME280;59446;52.192;4.628;2023-02-15T07:14:18;102696.69;;;15.78;51.36
71601;BME280;59446;52.192;4.628;2023-02-15T07:16:43;102692.38;;;15.74;51.73
71601;BME280;59446;52.192;4.628;2023-02-15T07:19:08;102685.31;;;15.78;51.76
71601;BME280;59446;52.192;4.628;2023-02-15T07:21:35;102689.72;;;15.75;51.71
71601;BME280;59446;52.192;4.628;2023-02-15T07:24:01;102686.28;;;15.73;51.71
71601;BME280;59446;52.192;4.628;2023-02-15T07:26:26;102679.25;;;15.74;51.47
71601;BME280;59446;52.192;4.628;2023-02-15T07:28:53;102681.88;;;15.74;51.64
71601;BME280;59446;52.192;4.628;2023-02-15T07:31:18;102681.03;;;15.73;51.45
71601;BME280;59446;52.192;4.628;2023-02-15T07:33:44;102679.31;;;15.71;52.14
71601;BME280;59446;52.192;4.628;2023-02-15T07:36:09;102671.44;;;15.71;51.74
71601;BME280;59446;52.192;4.628;2023-02-15T07:38:38;102673.13;;;15.73;52.24
71601;BME280;59446;52.192;4.628;2023-02-15T07:41:06;102658.06;;;15.82;51.83
71601;BME280;59446;52.192;4.628;2023-02-15T07:43:34;102663.16;;;15.91;51.49
71601;BME280;59446;52.192;4.628;2023-02-15T07:46:02;102661.28;;;15.96;50.25
71601;BME280;59446;52.192;4.628;2023-02-15T07:48:27;102652.47;;;15.98;50.44
71601;BME280;59446;52.192;4.628;2023-02-15T07:50:53;102654.13;;;16.02;49.41
71601;BME280;59446;52.192;4.628;2023-02-15T07:53:18;102660.28;;;16.01;49.40
71601;BME280;59446;52.192;4.628;2023-02-15T07:55:44;102651.50;;;16.02;49.71
71601;BME280;59446;52.192;4.628;2023-02-15T07:58:09;102660.28;;;16.01;49.83
71601;BME280;59446;52.192;4.628;2023-02-15T08:00:34;102655.78;;;16.06;49.09
71601;BME280;59446;52.192;4.628;2023-02-15T08:03:23;102652.25;;;16.08;49.52
71601;BME280;59446;52.192;4.628;2023-02-15T08:05:55;102647.81;;;16.10;49.64
71601;BME280;59446;52.192;4.628;2023-02-15T08:08:21;102652.22;;;16.09;49.35
71601;BME280;59446;52.192;4.628;2023-02-15T08:13:54;102649.97;;;16.31;49.73
71601;BME280;59446;52.192;4.628;2023-02-15T08:16:30;102643.25;;;16.56;49.26
71601;BME280;59446;52.192;4.628;2023-02-15T08:18:57;102641.06;;;16.74;48.78
71601;BME280;59446;52.192;4.628;2023-02-15T08:21:26;102646.16;;;16.81;49.13
71601;BME280;59446;52.192;4.628;2023-02-15T08:23:51;102643.41;;;16.86;48.92
71601;BME280;59446;52.192;4.628;2023-02-15T08:26:17;102646.69;;;16.94;49.38
71601;BME280;59446;52.192;4.628;2023-02-15T08:28:43;102649.16;;;17.00;49.00
71601;BME280;59446;52.192;4.628;2023-02-15T08:31:11;102642.84;;;17.07;49.16
71601;BME280;59446;52.192;4.628;2023-02-15T08:33:38;102652.25;;;17.16;49.44
71601;BME280;59446;52.192;4.628;2023-02-15T08:36:05;102647.63;;;17.25;49.26
71601;BME280;59446;52.192;4.628;2023-02-15T08:38:31;102645.56;;;17.35;49.07
71601;BME280;59446;52.192;4.628;2023-02-15T08:40:58;102644.66;;;17.36;49.17
71601;BME280;59446;52.192;4.628;2023-02-15T08:43:23;102644.72;;;17.35;49.25
71601;BME280;59446;52.192;4.628;2023-02-15T08:45:48;102638.94;;;17.53;48.97
71601;BME280;59446;52.192;4.628;2023-02-15T08:48:14;102636.91;;;17.63;49.02
71601;BME280;59446;52.192;4.628;2023-02-15T08:50:39;102635.19;;;17.62;49.00
71601;BME280;59446;52.192;4.628;2023-02-15T08:53:04;102644.13;;;17.56;49.19
71601;BME280;59446;52.192;4.628;2023-02-15T08:55:30;102634.31;;;17.61;48.93
71601;BME280;59446;52.192;4.628;2023-02-15T08:57:55;102638.34;;;17.74;48.99
71601;BME280;59446;52.192;4.628;2023-02-15T09:00:21;102641.59;;;17.82;49.11
71601;BME280;59446;52.192;4.628;2023-02-15T09:02:50;102645.97;;;17.83;48.63
71601;BME280;59446;52.192;4.628;2023-02-15T09:05:15;102632.13;;;17.77;49.07
71601;BME280;59446;52.192;4.628;2023-02-15T09:07:41;102637.53;;;17.72;49.27
71601;BME280;59446;52.192;4.628;2023-02-15T09:10:06;102643.81;;;17.67;49.38
71601;BME280;59446;52.192;4.628;2023-02-15T09:12:32;102657.00;;;17.67;49.45
71601;BME280;59446;52.192;4.628;2023-02-15T09:14:57;102646.41;;;17.68;49.63
71601;BME280;59446;52.192;4.628;2023-02-15T09:17:23;102642.94;;;17.66;49.79
71601;BME280;59446;52.192;4.628;2023-02-15T09:19:49;102631.44;;;17.70;49.51
71601;BME280;59446;52.192;4.628;2023-02-15T09:22:14;102635.91;;;17.67;49.85
71601;BME280;59446;52.192;4.628;2023-02-15T09:24:39;102627.38;;;17.58;49.91
71601;BME280;59446;52.192;4.628;2023-02-15T09:27:05;102633.31;;;17.65;50.41
71601;BME280;59446;52.192;4.628;2023-02-15T09:29:30;102623.59;;;17.67;49.99
71601;BME280;59446;52.192;4.628;2023-02-15T09:31:55;102623.59;;;17.67;50.09
71601;BME280;59446;52.192;4.628;2023-02-15T09:34:22;102624.44;;;17.99;50.22
71601;BME280;59446;52.192;4.628;2023-02-15T09:36:48;102621.38;;;18.11;49.08
71601;BME280;59446;52.192;4.628;2023-02-15T09:39:16;102627.78;;;18.04;49.32
71601;BME280;59446;52.192;4.628;2023-02-15T09:52:37;102631.22;;;18.34;48.52
71601;BME280;59446;52.192;4.628;2023-02-15T10:12:08;102627.66;;;18.63;48.17
71601;BME280;59446;52.192;4.628;2023-02-15T10:20:47;102625.03;;;18.63;48.04
71601;BME280;59446;52.192;4.628;2023-02-15T10:26:24;102622.72;;;18.78;48.27
71601;BME280;59446;52.192;4.628;2023-02-15T10:29:02;102627.34;;;18.72;48.25
71601;BME280;59446;52.192;4.628;2023-02-15T10:34:47;102615.97;;;18.70;48.09
71601;BME280;59446;52.192;4.628;2023-02-15T10:40:14;102597.78;;;18.62;47.97
71601;BME280;59446;52.192;4.628;2023-02-15T10:43:13;102606.13;;;18.75;48.12
71601;BME280;59446;52.192;4.628;2023-02-15T10:45:56;102601.00;;;18.95;48.03
71601;BME280;59446;52.192;4.628;2023-02-15T10:48:34;102606.19;;;18.98;48.17
71601;BME280;59446;52.192;4.628;2023-02-15T10:51:14;102605.53;;;18.92;48.76
71601;BME280;59446;52.192;4.628;2023-02-15T10:54:09;102600.47;;;18.86;48.56
71601;BME280;59446;52.192;4.628;2023-02-15T10:59:55;102585.00;;;19.00;47.74
71601;BME280;59446;52.192;4.628;2023-02-15T11:07:50;102566.13;;;18.87;47.83
71601;BME280;59446;52.192;4.628;2023-02-15T11:10:35;102566.00;;;18.90;47.96
71601;BME280;59446;52.192;4.628;2023-02-15T11:13:08;102565.72;;;18.98;47.54
71601;BME280;59446;52.192;4.628;2023-02-15T11:15:38;102568.47;;;18.95;47.66
71601;BME280;59446;52.192;4.628;2023-02-15T11:18:13;102551.81;;;18.93;47.54
71601;BME280;59446;52.192;4.628;2023-02-15T11:21:07;102547.84;;;19.06;47.67
71601;BME280;59446;52.192;4.628;2023-02-15T11:23:36;102552.59;;;19.20;47.70
71601;BME280;59446;52.192;4.628;2023-02-15T11:26:16;102554.53;;;19.15;47.79
71601;BME280;59446;52.192;4.628;2023-02-15T11:28:50;102563.38;;;19.14;48.05
71601;BME280;59446;52.192;4.628;2023-02-15T11:31:21;102562.22;;;19.21;47.96
71601;BME280;59446;52.192;4.628;2023-02-15T11:33:52;102567.00;;;19.36;48.63
71601;BME280;59446;52.192;4.628;2023-02-15T11:36:22;102563.66;;;19.31;48.32
71601;BME280;59446;52.192;4.628;2023-02-15T11:39:02;102566.50;;;19.25;49.07
71601;BME280;59446;52.192;4.628;2023-02-15T11:41:34;102555.94;;;19.48;48.15
71601;BME280;59446;52.192;4.628;2023-02-15T11:44:19;102557.09;;;19.41;48.36
71601;BME280;59446;52.192;4.628;2023-02-15T11:46:46;102560.47;;;19.45;48.14
71601;BME280;59446;52.192;4.628;2023-02-15T11:51:48;102556.84;;;19.47;48.22
71601;BME280;59446;52.192;4.628;2023-02-15T11:54:18;102542.00;;;19.45;48.29
71601;BME280;59446;52.192;4.628;2023-02-15T11:56:45;102532.25;;;19.68;48.68
71601;BME280;59446;52.192;4.628;2023-02-15T11:59:17;102524.44;;;19.87;48.72
71601;BME280;59446;52.192;4.628;2023-02-15T12:01:46;102517.31;;;19.89;47.42
71601;BME280;59446;52.192;4.628;2023-02-15T12:06:54;102517.00;;;19.97;47.59
71601;BME280;59446;52.192;4.628;2023-02-15T12:12:28;102520.69;;;19.93;48.00
71601;BME280;59446;52.192;4.628;2023-02-15T12:14:56;102519.97;;;20.11;47.97
71601;BME280;59446;52.192;4.628;2023-02-15T12:17:28;102523.16;;;19.97;47.86
71601;BME280;59446;52.192;4.628;2023-02-15T12:20:00;102514.06;;;19.83;48.17
71601;BME280;59446;52.192;4.628;2023-02-15T12:22:35;102508.22;;;19.75;48.16
71601;BME280;59446;52.192;4.628;2023-02-15T12:25:04;102515.34;;;19.73;47.90
71601;BME280;59446;52.192;4.628;2023-02-15T12:27:45;102524.16;;;19.73;48.03
71601;BME280;59446;52.192;4.628;2023-02-15T12:30:31;102508.91;;;19.80;49.48
71601;BME280;59446;52.192;4.628;2023-02-15T12:33:05;102512.16;;;19.86;50.06
71601;BME280;59446;52.192;4.628;2023-02-15T12:35:38;102513.19;;;19.82;48.76
71601;BME280;59446;52.192;4.628;2023-02-15T12:40:59;102512.47;;;19.79;49.03
71601;BME280;59446;52.192;4.628;2023-02-15T12:43:36;102508.78;;;19.83;48.92
71601;BME280;59446;52.192;4.628;2023-02-15T12:46:24;102508.78;;;19.83;49.01
71601;BME280;59446;52.192;4.628;2023-02-15T12:49:17;102504.28;;;19.85;48.80
71601;BME280;59446;52.192;4.628;2023-02-15T12:51:51;102503.63;;;19.80;48.85
71601;BME280;59446;52.192;4.628;2023-02-15T12:54:32;102510.22;;;19.90;49.17
71601;BME280;59446;52.192;4.628;2023-02-15T12:57:28;102497.94;;;19.89;48.63
71601;BME280;59446;52.192;4.628;2023-02-15T13:00:25;102499.91;;;19.84;48.80
71601;BME280;59446;52.192;4.628;2023-02-15T13:02:54;102499.84;;;19.85;48.51
71601;BME280;59446;52.192;4.628;2023-02-15T13:06:14;102491.91;;;19.85;48.93
71601;BME280;59446;52.192;4.628;2023-02-15T13:08:26;102494.69;;;19.82;48.30
71601;BME280;59446;52.192;4.628;2023-02-15T13:10:59;102482.81;;;19.70;48.97
71601;BME280;59446;52.192;4.628;2023-02-15T13:13:27;102485.66;;;19.66;47.49
71601;BME280;59446;52.192;4.628;2023-02-15T13:16:15;102485.84;;;19.61;48.66
71601;BME280;59446;52.192;4.628;2023-02-15T13:18:44;102484.78;;;19.65;48.17
71601;BME280;59446;52.192;4.628;2023-02-15T13:21:18;102479.50;;;19.65;48.03
71601;BME280;59446;52.192;4.628;2023-02-15T13:23:52;102481.16;;;19.68;48.24
71601;BME280;59446;52.192;4.628;2023-02-15T13:26:21;102474.22;;;19.65;48.39
71601;BME280;59446;52.192;4.628;2023-02-15T13:28:50;102475.03;;;19.67;48.31
71601;BME280;59446;52.192;4.628;2023-02-15T13:31:19;102473.75;;;19.56;48.47
71601;BME280;59446;52.192;4.628;2023-02-15T13:33:58;102469.44;;;19.53;48.24
71601;BME280;59446;52.192;4.628;2023-02-15T13:42:24;102468.19;;;19.40;49.00
71601;BME280;59446;52.192;4.628;2023-02-15T13:45:49;102457.81;;;19.35;49.07
71601;BME280;59446;52.192;4.628;2023-02-15T13:48:13;102458.16;;;19.26;49.26
71601;BME280;59446;52.192;4.628;2023-02-15T13:56:13;102438.03;;;19.22;49.37
71601;BME280;59446;52.192;4.628;2023-02-15T14:15:27;102443.00;;;19.08;48.91
71601;BME280;59446;52.192;4.628;2023-02-15T14:23:43;102431.13;;;18.96;48.96
71601;BME280;59446;52.192;4.628;2023-02-15T14:32:15;102436.59;;;18.92;49.52
71601;BME280;59446;52.192;4.628;2023-02-15T14:35:02;102442.91;;;18.88;49.38
71601;BME280;59446;52.192;4.628;2023-02-15T14:37:45;102445.59;;;18.86;49.32
71601;BME280;59446;52.192;4.628;2023-02-15T14:40:31;102436.72;;;18.89;49.49
71601;BME280;59446;52.192;4.628;2023-02-15T14:46:16;102447.53;;;18.81;49.84
71601;BME280;59446;52.192;4.628;2023-02-15T14:48:54;102450.34;;;18.76;50.01
71601;BME280;59446;52.192;4.628;2023-02-15T14:59:43;102442.91;;;18.64;50.30
71601;BME280;59446;52.192;4.628;2023-02-15T15:02:15;102437.78;;;18.60;50.23
71601;BME280;59446;52.192;4.628;2023-02-15T15:07:23;102438.75;;;18.57;50.63
71601;BME280;59446;52.192;4.628;2023-02-15T15:10:44;102438.81;;;18.56;50.65
71601;BME280;59446;52.192;4.628;2023-02-15T15:18:51;102425.22;;;18.43;50.71
71601;BME280;59446;52.192;4.628;2023-02-15T15:21:56;102425.16;;;18.44;50.50
71601;BME280;59446;52.192;4.628;2023-02-15T15:27:42;102425.78;;;18.51;50.29